Neder Vindinge, Denmark
Current Conditions -  °F | °C
As of 5:20 PM on Friday 21 Nov 2014 (Local Time) from EKAV Reporting Station
Broken Clouds Broken Clouds  
Wind Chill: 45°   Ceiling: 2300
Heat Index: 45°   Visibility: 6mi
Dew Point: 39°   Wind: 1mph
Humidity: 81%   Direction: 60°ENE
Pressure: 30.3"   Gusts: NA
Location:  55.03°N, 11.88°E
Report Text: EKAV 211620Z AUTO 06001KT 9999NDV FEW012/// BKN023///BKN050/// 07/04 Q1026
Loading
Personal Weather Stations






























Interactive Weather Map New forecast layout! Learn more

10-Day Weather Forecast

Advertisements
Track Severe Weather on mobile